sensor_id;sensor_type;location;lat;lon;timestamp;P1;durP1;ratioP1;P2;durP2;ratioP2
33792;SDS011;20105;48.764;9.178;2022-11-12T00:01:20;10.07;;;8.70;;
33792;SDS011;20105;48.764;9.178;2022-11-12T00:03:46;9.30;;;7.73;;
33792;SDS011;20105;48.764;9.178;2022-11-12T00:06:12;13.50;;;8.60;;
33792;SDS011;20105;48.764;9.178;2022-11-12T00:08:37;11.03;;;8.73;;
33792;SDS011;20105;48.764;9.178;2022-11-12T00:11:03;10.83;;;8.50;;
33792;SDS011;20105;48.764;9.178;2022-11-12T00:13:29;11.37;;;8.50;;
33792;SDS011;20105;48.764;9.178;2022-11-12T00:15:55;9.63;;;7.37;;
33792;SDS011;20105;48.764;9.178;2022-11-12T00:18:20;12.17;;;8.00;;
33792;SDS011;20105;48.764;9.178;2022-11-12T00:20:46;10.50;;;8.33;;
33792;SDS011;20105;48.764;9.178;2022-11-12T00:23:11;13.40;;;8.80;;
33792;SDS011;20105;48.764;9.178;2022-11-12T00:25:37;9.10;;;8.20;;
33792;SDS011;20105;48.764;9.178;2022-11-12T00:28:03;13.37;;;8.13;;
33792;SDS011;20105;48.764;9.178;2022-11-12T00:30:31;7.70;;;7.00;;
33792;SDS011;20105;48.764;9.178;2022-11-12T00:33:01;12.20;;;8.70;;
33792;SDS011;20105;48.764;9.178;2022-11-12T00:35:29;12.27;;;7.68;;
33792;SDS011;20105;48.764;9.178;2022-11-12T00:37:56;11.45;;;8.25;;
33792;SDS011;20105;48.764;9.178;2022-11-12T00:40:22;8.95;;;7.47;;
33792;SDS011;20105;48.764;9.178;2022-11-12T00:42:49;12.30;;;7.70;;
33792;SDS011;20105;48.764;9.178;2022-11-12T00:45:16;12.23;;;7.60;;
33792;SDS011;20105;48.764;9.178;2022-11-12T00:47:42;11.10;;;8.50;;
33792;SDS011;20105;48.764;9.178;2022-11-12T00:50:08;10.13;;;7.73;;
33792;SDS011;20105;48.764;9.178;2022-11-12T00:52:34;8.57;;;7.40;;
33792;SDS011;20105;48.764;9.178;2022-11-12T00:54:59;8.13;;;7.10;;
33792;SDS011;20105;48.764;9.178;2022-11-12T00:57:25;8.33;;;7.43;;
33792;SDS011;20105;48.764;9.178;2022-11-12T00:59:51;10.67;;;7.73;;
33792;SDS011;20105;48.764;9.178;2022-11-12T01:02:16;12.63;;;8.87;;
33792;SDS011;20105;48.764;9.178;2022-11-12T01:04:42;9.33;;;7.20;;
33792;SDS011;20105;48.764;9.178;2022-11-12T01:07:07;9.70;;;7.03;;
33792;SDS011;20105;48.764;9.178;2022-11-12T01:09:33;10.13;;;9.13;;
33792;SDS011;20105;48.764;9.178;2022-11-12T01:11:58;9.87;;;7.60;;
33792;SDS011;20105;48.764;9.178;2022-11-12T01:14:24;8.40;;;7.17;;
33792;SDS011;20105;48.764;9.178;2022-11-12T01:16:50;12.27;;;8.53;;
33792;SDS011;20105;48.764;9.178;2022-11-12T01:19:15;10.83;;;8.60;;
33792;SDS011;20105;48.764;9.178;2022-11-12T01:21:43;11.93;;;8.40;;
33792;SDS011;20105;48.764;9.178;2022-11-12T01:24:09;10.70;;;7.78;;
33792;SDS011;20105;48.764;9.178;2022-11-12T01:26:35;10.35;;;8.10;;
33792;SDS011;20105;48.764;9.178;2022-11-12T01:29:01;8.40;;;6.85;;
33792;SDS011;20105;48.764;9.178;2022-11-12T01:31:28;9.48;;;7.00;;
33792;SDS011;20105;48.764;9.178;2022-11-12T01:34:00;8.13;;;6.55;;
33792;SDS011;20105;48.764;9.178;2022-11-12T01:36:29;8.65;;;7.00;;
33792;SDS011;20105;48.764;9.178;2022-11-12T01:38:56;10.10;;;7.53;;
33792;SDS011;20105;48.764;9.178;2022-11-12T01:41:26;9.63;;;8.27;;
33792;SDS011;20105;48.764;9.178;2022-11-12T01:44:10;9.23;;;7.22;;
33792;SDS011;20105;48.764;9.178;2022-11-12T01:52:13;7.97;;;6.53;;
33792;SDS011;20105;48.764;9.178;2022-11-12T01:54:43;8.32;;;6.72;;
33792;SDS011;20105;48.764;9.178;2022-11-12T01:57:14;9.35;;;8.45;;
33792;SDS011;20105;48.764;9.178;2022-11-12T01:59:43;9.43;;;7.47;;
33792;SDS011;20105;48.764;9.178;2022-11-12T02:02:11;8.65;;;6.88;;
33792;SDS011;20105;48.764;9.178;2022-11-12T02:04:37;8.80;;;7.33;;
33792;SDS011;20105;48.764;9.178;2022-11-12T02:07:06;8.13;;;7.05;;
33792;SDS011;20105;48.764;9.178;2022-11-12T02:09:33;7.82;;;6.68;;
33792;SDS011;20105;48.764;9.178;2022-11-12T02:12:00;7.80;;;7.03;;
33792;SDS011;20105;48.764;9.178;2022-11-12T02:14:25;7.77;;;6.40;;
33792;SDS011;20105;48.764;9.178;2022-11-12T02:16:52;10.05;;;7.22;;
33792;SDS011;20105;48.764;9.178;2022-11-12T02:19:17;9.30;;;7.60;;
33792;SDS011;20105;48.764;9.178;2022-11-12T02:21:43;8.73;;;7.00;;
33792;SDS011;20105;48.764;9.178;2022-11-12T02:26:43;9.50;;;7.03;;
33792;SDS011;20105;48.764;9.178;2022-11-12T02:29:13;9.18;;;6.43;;
33792;SDS011;20105;48.764;9.178;2022-11-12T02:31:38;8.00;;;6.80;;
33792;SDS011;20105;48.764;9.178;2022-11-12T02:34:04;7.13;;;6.43;;
33792;SDS011;20105;48.764;9.178;2022-11-12T02:36:29;8.00;;;7.13;;
33792;SDS011;20105;48.764;9.178;2022-11-12T02:38:55;6.40;;;5.60;;
33792;SDS011;20105;48.764;9.178;2022-11-12T02:41:21;10.23;;;6.50;;
33792;SDS011;20105;48.764;9.178;2022-11-12T02:43:47;9.00;;;7.05;;
33792;SDS011;20105;48.764;9.178;2022-11-12T02:46:16;9.07;;;7.05;;
33792;SDS011;20105;48.764;9.178;2022-11-12T02:48:41;10.73;;;7.07;;
33792;SDS011;20105;48.764;9.178;2022-11-12T02:51:07;6.75;;;6.00;;
33792;SDS011;20105;48.764;9.178;2022-11-12T02:53:33;7.30;;;6.00;;
33792;SDS011;20105;48.764;9.178;2022-11-12T02:55:59;11.30;;;6.73;;
33792;SDS011;20105;48.764;9.178;2022-11-12T02:58:24;6.80;;;5.95;;
33792;SDS011;20105;48.764;9.178;2022-11-12T03:00:50;6.50;;;5.80;;
33792;SDS011;20105;48.764;9.178;2022-11-12T03:03:16;7.83;;;7.13;;
33792;SDS011;20105;48.764;9.178;2022-11-12T03:05:42;8.30;;;6.40;;
33792;SDS011;20105;48.764;9.178;2022-11-12T03:08:08;8.98;;;6.53;;
33792;SDS011;20105;48.764;9.178;2022-11-12T03:10:37;9.93;;;7.10;;
33792;SDS011;20105;48.764;9.178;2022-11-12T03:13:03;7.15;;;6.45;;
33792;SDS011;20105;48.764;9.178;2022-11-12T03:15:29;8.75;;;7.30;;
33792;SDS011;20105;48.764;9.178;2022-11-12T03:17:56;7.30;;;6.50;;
33792;SDS011;20105;48.764;9.178;2022-11-12T03:20:23;9.57;;;6.70;;
33792;SDS011;20105;48.764;9.178;2022-11-12T03:22:58;6.75;;;6.07;;
33792;SDS011;20105;48.764;9.178;2022-11-12T03:25:28;7.75;;;6.88;;
33792;SDS011;20105;48.764;9.178;2022-11-12T03:27:57;6.53;;;5.93;;
33792;SDS011;20105;48.764;9.178;2022-11-12T03:30:32;7.43;;;6.15;;
33792;SDS011;20105;48.764;9.178;2022-11-12T03:33:00;8.10;;;6.90;;
33792;SDS011;20105;48.764;9.178;2022-11-12T03:35:25;8.97;;;7.07;;
33792;SDS011;20105;48.764;9.178;2022-11-12T03:37:51;7.30;;;6.23;;
33792;SDS011;20105;48.764;9.178;2022-11-12T03:40:18;6.03;;;5.32;;
33792;SDS011;20105;48.764;9.178;2022-11-12T03:42:45;6.22;;;5.63;;
33792;SDS011;20105;48.764;9.178;2022-11-12T03:45:11;5.63;;;4.70;;
33792;SDS011;20105;48.764;9.178;2022-11-12T03:47:41;6.90;;;5.95;;
33792;SDS011;20105;48.764;9.178;2022-11-12T03:50:07;6.00;;;5.50;;
33792;SDS011;20105;48.764;9.178;2022-11-12T03:52:34;5.90;;;5.13;;
33792;SDS011;20105;48.764;9.178;2022-11-12T03:55:00;9.30;;;6.80;;
33792;SDS011;20105;48.764;9.178;2022-11-12T03:57:25;6.70;;;5.70;;
33792;SDS011;20105;48.764;9.178;2022-11-12T03:59:51;6.47;;;5.40;;
33792;SDS011;20105;48.764;9.178;2022-11-12T04:02:16;6.07;;;5.47;;
33792;SDS011;20105;48.764;9.178;2022-11-12T04:04:42;6.70;;;5.73;;
33792;SDS011;20105;48.764;9.178;2022-11-12T04:07:26;8.63;;;6.50;;
33792;SDS011;20105;48.764;9.178;2022-11-12T04:10:10;9.15;;;5.13;;
33792;SDS011;20105;48.764;9.178;2022-11-12T04:12:36;6.63;;;5.73;;
33792;SDS011;20105;48.764;9.178;2022-11-12T04:15:20;6.55;;;5.15;;
33792;SDS011;20105;48.764;9.178;2022-11-12T04:17:45;6.60;;;4.87;;
33792;SDS011;20105;48.764;9.178;2022-11-12T04:20:29;4.90;;;4.40;;
33792;SDS011;20105;48.764;9.178;2022-11-12T04:23:30;4.75;;;4.35;;
33792;SDS011;20105;48.764;9.178;2022-11-12T04:25:56;5.77;;;4.87;;
33792;SDS011;20105;48.764;9.178;2022-11-12T04:28:40;5.38;;;4.88;;
33792;SDS011;20105;48.764;9.178;2022-11-12T04:31:25;5.18;;;4.70;;
33792;SDS011;20105;48.764;9.178;2022-11-12T04:33:51;5.53;;;5.03;;
33792;SDS011;20105;48.764;9.178;2022-11-12T04:36:17;10.73;;;4.73;;
33792;SDS011;20105;48.764;9.178;2022-11-12T04:38:42;5.80;;;5.30;;
33792;SDS011;20105;48.764;9.178;2022-11-12T04:41:08;6.03;;;4.63;;
33792;SDS011;20105;48.764;9.178;2022-11-12T04:43:52;4.60;;;4.20;;
33792;SDS011;20105;48.764;9.178;2022-11-12T04:46:36;5.10;;;4.60;;
33792;SDS011;20105;48.764;9.178;2022-11-12T04:49:02;4.87;;;4.43;;
33792;SDS011;20105;48.764;9.178;2022-11-12T04:51:27;3.93;;;3.57;;
33792;SDS011;20105;48.764;9.178;2022-11-12T04:54:11;6.00;;;4.60;;
33792;SDS011;20105;48.764;9.178;2022-11-12T04:56:37;4.77;;;4.33;;
33792;SDS011;20105;48.764;9.178;2022-11-12T04:59:02;4.43;;;4.03;;
33792;SDS011;20105;48.764;9.178;2022-11-12T05:01:28;5.13;;;4.50;;
33792;SDS011;20105;48.764;9.178;2022-11-12T05:03:54;4.90;;;3.60;;
33792;SDS011;20105;48.764;9.178;2022-11-12T05:06:19;4.07;;;3.67;;
33792;SDS011;20105;48.764;9.178;2022-11-12T05:09:03;3.70;;;3.40;;
33792;SDS011;20105;48.764;9.178;2022-11-12T05:11:29;4.50;;;3.70;;
33792;SDS011;20105;48.764;9.178;2022-11-12T05:13:54;5.07;;;4.57;;
33792;SDS011;20105;48.764;9.178;2022-11-12T05:16:20;5.17;;;3.77;;
33792;SDS011;20105;48.764;9.178;2022-11-12T05:18:45;4.63;;;4.23;;
33792;SDS011;20105;48.764;9.178;2022-11-12T05:21:11;3.60;;;3.30;;
33792;SDS011;20105;48.764;9.178;2022-11-12T05:23:55;5.63;;;4.32;;
33792;SDS011;20105;48.764;9.178;2022-11-12T05:26:20;4.70;;;4.30;;
33792;SDS011;20105;48.764;9.178;2022-11-12T05:28:46;5.40;;;4.27;;
33792;SDS011;20105;48.764;9.178;2022-11-12T05:31:11;5.03;;;4.40;;
33792;SDS011;20105;48.764;9.178;2022-11-12T05:33:37;4.40;;;4.00;;
33792;SDS011;20105;48.764;9.178;2022-11-12T05:36:03;5.07;;;4.07;;
33792;SDS011;20105;48.764;9.178;2022-11-12T05:38:28;4.43;;;4.03;;
33792;SDS011;20105;48.764;9.178;2022-11-12T05:40:54;4.40;;;3.73;;
33792;SDS011;20105;48.764;9.178;2022-11-12T05:43:19;3.93;;;3.63;;
33792;SDS011;20105;48.764;9.178;2022-11-12T05:45:45;4.47;;;3.80;;
33792;SDS011;20105;48.764;9.178;2022-11-12T05:48:10;3.40;;;3.20;;
33792;SDS011;20105;48.764;9.178;2022-11-12T05:50:36;4.90;;;4.10;;
33792;SDS011;20105;48.764;9.178;2022-11-12T05:53:01;3.57;;;3.27;;
33792;SDS011;20105;48.764;9.178;2022-11-12T05:55:27;4.67;;;3.63;;
33792;SDS011;20105;48.764;9.178;2022-11-12T05:57:52;5.13;;;4.00;;
33792;SDS011;20105;48.764;9.178;2022-11-12T06:00:18;9.20;;;4.20;;
33792;SDS011;20105;48.764;9.178;2022-11-12T06:02:44;4.20;;;3.80;;
33792;SDS011;20105;48.764;9.178;2022-11-12T06:05:09;4.67;;;3.70;;
33792;SDS011;20105;48.764;9.178;2022-11-12T06:07:35;5.87;;;4.57;;
33792;SDS011;20105;48.764;9.178;2022-11-12T06:10:00;4.87;;;4.30;;
33792;SDS011;20105;48.764;9.178;2022-11-12T06:12:26;4.80;;;4.20;;
33792;SDS011;20105;48.764;9.178;2022-11-12T06:14:51;3.27;;;2.97;;
33792;SDS011;20105;48.764;9.178;2022-11-12T06:17:17;4.13;;;3.73;;
33792;SDS011;20105;48.764;9.178;2022-11-12T06:19:42;4.37;;;3.67;;
33792;SDS011;20105;48.764;9.178;2022-11-12T06:22:08;3.80;;;3.50;;
33792;SDS011;20105;48.764;9.178;2022-11-12T06:24:33;3.80;;;3.50;;
33792;SDS011;20105;48.764;9.178;2022-11-12T06:26:59;5.80;;;5.20;;
33792;SDS011;20105;48.764;9.178;2022-11-12T06:29:25;4.10;;;3.57;;
33792;SDS011;20105;48.764;9.178;2022-11-12T06:31:50;4.40;;;4.00;;
33792;SDS011;20105;48.764;9.178;2022-11-12T06:34:16;4.23;;;3.93;;
33792;SDS011;20105;48.764;9.178;2022-11-12T06:36:42;4.83;;;4.37;;
33792;SDS011;20105;48.764;9.178;2022-11-12T06:39:09;4.33;;;3.93;;
33792;SDS011;20105;48.764;9.178;2022-11-12T06:41:35;5.70;;;5.03;;
33792;SDS011;20105;48.764;9.178;2022-11-12T06:44:02;4.40;;;3.90;;
33792;SDS011;20105;48.764;9.178;2022-11-12T06:46:28;4.88;;;3.65;;
33792;SDS011;20105;48.764;9.178;2022-11-12T06:48:54;4.63;;;3.30;;
33792;SDS011;20105;48.764;9.178;2022-11-12T06:51:19;4.70;;;3.80;;
33792;SDS011;20105;48.764;9.178;2022-11-12T06:53:46;4.13;;;3.83;;
33792;SDS011;20105;48.764;9.178;2022-11-12T06:56:13;6.30;;;5.00;;
33792;SDS011;20105;48.764;9.178;2022-11-12T06:58:39;5.25;;;4.38;;
33792;SDS011;20105;48.764;9.178;2022-11-12T07:01:10;4.00;;;3.53;;
33792;SDS011;20105;48.764;9.178;2022-11-12T07:03:38;5.38;;;3.97;;
33792;SDS011;20105;48.764;9.178;2022-11-12T07:06:05;4.80;;;4.18;;
33792;SDS011;20105;48.764;9.178;2022-11-12T07:08:32;4.25;;;3.53;;
33792;SDS011;20105;48.764;9.178;2022-11-12T07:10:58;4.40;;;4.00;;
33792;SDS011;20105;48.764;9.178;2022-11-12T07:13:24;5.17;;;3.70;;
33792;SDS011;20105;48.764;9.178;2022-11-12T07:15:50;4.83;;;4.33;;
33792;SDS011;20105;48.764;9.178;2022-11-12T07:18:15;4.10;;;3.80;;
33792;SDS011;20105;48.764;9.178;2022-11-12T07:20:41;4.23;;;3.93;;
33792;SDS011;20105;48.764;9.178;2022-11-12T07:23:06;5.10;;;4.43;;
33792;SDS011;20105;48.764;9.178;2022-11-12T07:25:33;3.83;;;3.53;;
33792;SDS011;20105;48.764;9.178;2022-11-12T07:27:59;4.05;;;3.20;;
33792;SDS011;20105;48.764;9.178;2022-11-12T07:30:24;4.10;;;3.70;;
33792;SDS011;20105;48.764;9.178;2022-11-12T07:32:50;4.40;;;4.00;;
33792;SDS011;20105;48.764;9.178;2022-11-12T07:35:16;5.27;;;3.93;;
33792;SDS011;20105;48.764;9.178;2022-11-12T07:37:41;7.03;;;4.10;;
33792;SDS011;20105;48.764;9.178;2022-11-12T07:40:07;4.27;;;3.87;;
33792;SDS011;20105;48.764;9.178;2022-11-12T07:42:33;6.40;;;3.80;;
33792;SDS011;20105;48.764;9.178;2022-11-12T07:44:59;4.55;;;4.10;;
33792;SDS011;20105;48.764;9.178;2022-11-12T07:47:25;3.87;;;3.47;;
33792;SDS011;20105;48.764;9.178;2022-11-12T07:49:51;5.30;;;3.65;;
33792;SDS011;20105;48.764;9.178;2022-11-12T07:52:17;5.43;;;3.80;;
33792;SDS011;20105;48.764;9.178;2022-11-12T07:54:42;4.53;;;3.73;;
33792;SDS011;20105;48.764;9.178;2022-11-12T07:57:08;6.60;;;4.87;;
33792;SDS011;20105;48.764;9.178;2022-11-12T07:59:33;4.43;;;4.03;;
33792;SDS011;20105;48.764;9.178;2022-11-12T08:01:59;5.27;;;4.50;;
33792;SDS011;20105;48.764;9.178;2022-11-12T08:04:25;5.70;;;4.10;;
33792;SDS011;20105;48.764;9.178;2022-11-12T08:06:50;4.10;;;3.70;;
33792;SDS011;20105;48.764;9.178;2022-11-12T08:09:16;4.97;;;4.40;;
33792;SDS011;20105;48.764;9.178;2022-11-12T08:11:42;5.10;;;4.60;;
33792;SDS011;20105;48.764;9.178;2022-11-12T08:14:07;4.70;;;4.30;;
33792;SDS011;20105;48.764;9.178;2022-11-12T08:16:33;4.57;;;4.17;;
33792;SDS011;20105;48.764;9.178;2022-11-12T08:18:59;7.37;;;4.27;;
33792;SDS011;20105;48.764;9.178;2022-11-12T08:21:24;5.95;;;3.83;;
33792;SDS011;20105;48.764;9.178;2022-11-12T08:23:50;5.87;;;3.90;;
33792;SDS011;20105;48.764;9.178;2022-11-12T08:26:16;5.03;;;4.53;;
33792;SDS011;20105;48.764;9.178;2022-11-12T08:28:44;6.97;;;5.70;;
33792;SDS011;20105;48.764;9.178;2022-11-12T08:31:18;5.95;;;5.38;;
33792;SDS011;20105;48.764;9.178;2022-11-12T08:33:46;9.00;;;5.45;;
33792;SDS011;20105;48.764;9.178;2022-11-12T08:36:12;5.57;;;4.50;;
33792;SDS011;20105;48.764;9.178;2022-11-12T08:38:39;7.03;;;5.35;;
33792;SDS011;20105;48.764;9.178;2022-11-12T08:41:06;4.68;;;4.28;;
33792;SDS011;20105;48.764;9.178;2022-11-12T08:43:34;4.70;;;4.25;;
33792;SDS011;20105;48.764;9.178;2022-11-12T08:46:00;5.00;;;4.53;;
33792;SDS011;20105;48.764;9.178;2022-11-12T08:48:27;5.30;;;4.40;;
33792;SDS011;20105;48.764;9.178;2022-11-12T08:50:54;5.72;;;5.22;;
33792;SDS011;20105;48.764;9.178;2022-11-12T08:53:21;5.22;;;4.70;;
33792;SDS011;20105;48.764;9.178;2022-11-12T08:55:47;5.43;;;4.75;;
33792;SDS011;20105;48.764;9.178;2022-11-12T08:58:16;4.82;;;4.32;;
33792;SDS011;20105;48.764;9.178;2022-11-12T09:00:42;5.03;;;4.63;;
33792;SDS011;20105;48.764;9.178;2022-11-12T09:03:15;6.75;;;6.15;;
33792;SDS011;20105;48.764;9.178;2022-11-12T09:05:42;14.55;;;5.70;;
33792;SDS011;20105;48.764;9.178;2022-11-12T09:08:09;4.87;;;4.10;;
33792;SDS011;20105;48.764;9.178;2022-11-12T09:10:36;8.82;;;5.35;;
33792;SDS011;20105;48.764;9.178;2022-11-12T09:13:03;5.22;;;4.60;;
33792;SDS011;20105;48.764;9.178;2022-11-12T09:15:29;4.40;;;4.00;;
33792;SDS011;20105;48.764;9.178;2022-11-12T09:17:55;4.80;;;4.40;;
33792;SDS011;20105;48.764;9.178;2022-11-12T09:20:26;7.82;;;6.70;;
33792;SDS011;20105;48.764;9.178;2022-11-12T09:22:52;7.63;;;6.38;;
33792;SDS011;20105;48.764;9.178;2022-11-12T09:25:22;7.10;;;5.85;;
33792;SDS011;20105;48.764;9.178;2022-11-12T09:27:47;5.63;;;5.10;;
33792;SDS011;20105;48.764;9.178;2022-11-12T09:30:13;6.97;;;6.37;;
33792;SDS011;20105;48.764;9.178;2022-11-12T09:32:39;6.70;;;5.93;;
33792;SDS011;20105;48.764;9.178;2022-11-12T09:35:04;5.67;;;5.00;;
33792;SDS011;20105;48.764;9.178;2022-11-12T09:37:30;6.00;;;5.37;;
33792;SDS011;20105;48.764;9.178;2022-11-12T09:39:56;5.37;;;4.87;;
33792;SDS011;20105;48.764;9.178;2022-11-12T09:42:21;6.03;;;5.20;;
33792;SDS011;20105;48.764;9.178;2022-11-12T09:44:55;6.37;;;5.60;;
33792;SDS011;20105;48.764;9.178;2022-11-12T09:47:33;5.15;;;4.75;;
33792;SDS011;20105;48.764;9.178;2022-11-12T09:50:09;4.80;;;4.35;;
33792;SDS011;20105;48.764;9.178;2022-11-12T09:52:51;7.63;;;5.13;;
33792;SDS011;20105;48.764;9.178;2022-11-12T09:55:32;6.00;;;4.70;;
33792;SDS011;20105;48.764;9.178;2022-11-12T09:58:00;5.75;;;4.72;;
33792;SDS011;20105;48.764;9.178;2022-11-12T10:00:26;5.80;;;5.17;;
33792;SDS011;20105;48.764;9.178;2022-11-12T10:02:54;7.55;;;5.80;;
33792;SDS011;20105;48.764;9.178;2022-11-12T10:05:51;7.47;;;5.63;;
33792;SDS011;20105;48.764;9.178;2022-11-12T10:11:17;6.95;;;5.65;;
33792;SDS011;20105;48.764;9.178;2022-11-12T10:13:58;6.50;;;5.07;;
33792;SDS011;20105;48.764;9.178;2022-11-12T10:17:03;6.47;;;5.32;;
33792;SDS011;20105;48.764;9.178;2022-11-12T10:25:21;5.07;;;4.60;;
33792;SDS011;20105;48.764;9.178;2022-11-12T10:27:48;5.60;;;4.50;;
33792;SDS011;20105;48.764;9.178;2022-11-12T10:30:21;7.40;;;6.50;;
33792;SDS011;20105;48.764;9.178;2022-11-12T10:32:48;6.40;;;5.53;;
33792;SDS011;20105;48.764;9.178;2022-11-12T10:35:16;7.05;;;6.18;;
33792;SDS011;20105;48.764;9.178;2022-11-12T10:37:56;8.15;;;5.45;;
33792;SDS011;20105;48.764;9.178;2022-11-12T10:40:30;7.20;;;5.35;;
33792;SDS011;20105;48.764;9.178;2022-11-12T10:43:24;6.20;;;5.47;;
33792;SDS011;20105;48.764;9.178;2022-11-12T10:45:49;5.65;;;4.70;;
33792;SDS011;20105;48.764;9.178;2022-11-12T10:48:33;5.93;;;5.05;;
33792;SDS011;20105;48.764;9.178;2022-11-12T10:51:00;6.10;;;5.50;;
33792;SDS011;20105;48.764;9.178;2022-11-12T10:53:28;6.03;;;4.72;;
33792;SDS011;20105;48.764;9.178;2022-11-12T10:56:00;9.55;;;4.63;;
33792;SDS011;20105;48.764;9.178;2022-11-12T10:58:45;5.82;;;4.80;;
33792;SDS011;20105;48.764;9.178;2022-11-12T11:01:30;4.40;;;4.03;;
33792;SDS011;20105;48.764;9.178;2022-11-12T11:03:57;8.10;;;4.70;;
33792;SDS011;20105;48.764;9.178;2022-11-12T11:06:24;5.93;;;4.90;;
33792;SDS011;20105;48.764;9.178;2022-11-12T11:08:51;4.68;;;4.28;;
33792;SDS011;20105;48.764;9.178;2022-11-12T11:11:20;6.45;;;5.85;;
33792;SDS011;20105;48.764;9.178;2022-11-12T11:13:49;12.23;;;7.32;;
33792;SDS011;20105;48.764;9.178;2022-11-12T11:16:20;12.07;;;6.15;;
33792;SDS011;20105;48.764;9.178;2022-11-12T11:18:52;5.55;;;5.05;;
33792;SDS011;20105;48.764;9.178;2022-11-12T11:24:06;8.90;;;6.30;;
33792;SDS011;20105;48.764;9.178;2022-11-12T11:26:48;6.25;;;5.70;;
33792;SDS011;20105;48.764;9.178;2022-11-12T11:29:23;7.28;;;6.55;;
33792;SDS011;20105;48.764;9.178;2022-11-12T11:32:18;6.80;;;6.07;;
33792;SDS011;20105;48.764;9.178;2022-11-12T11:35:15;7.03;;;5.82;;
33792;SDS011;20105;48.764;9.178;2022-11-12T11:46:30;6.10;;;5.00;;
33792;SDS011;20105;48.764;9.178;2022-11-12T11:54:23;6.00;;;5.13;;
33792;SDS011;20105;48.764;9.178;2022-11-12T11:57:17;7.18;;;5.72;;
33792;SDS011;20105;48.764;9.178;2022-11-12T12:02:45;5.72;;;5.22;;
33792;SDS011;20105;48.764;9.178;2022-11-12T12:05:37;7.95;;;5.63;;
33792;SDS011;20105;48.764;9.178;2022-11-12T12:08:29;5.35;;;4.90;;
33792;SDS011;20105;48.764;9.178;2022-11-12T12:11:45;5.60;;;5.10;;
33792;SDS011;20105;48.764;9.178;2022-11-12T12:14:09;6.43;;;5.82;;
33792;SDS011;20105;48.764;9.178;2022-11-12T12:22:29;5.90;;;5.30;;
33792;SDS011;20105;48.764;9.178;2022-11-12T12:25:13;7.40;;;5.22;;
33792;SDS011;20105;48.764;9.178;2022-11-12T12:27:51;5.60;;;5.20;;
33792;SDS011;20105;48.764;9.178;2022-11-12T12:30:23;5.38;;;4.68;;
33792;SDS011;20105;48.764;9.178;2022-11-12T12:32:52;8.68;;;5.38;;
33792;SDS011;20105;48.764;9.178;2022-11-12T12:35:33;6.97;;;5.50;;
33792;SDS011;20105;48.764;9.178;2022-11-12T12:38:26;8.75;;;5.82;;
33792;SDS011;20105;48.764;9.178;2022-11-12T12:43:53;8.33;;;6.00;;
33792;SDS011;20105;48.764;9.178;2022-11-12T12:46:22;7.43;;;5.10;;
33792;SDS011;20105;48.764;9.178;2022-11-12T12:48:52;12.60;;;5.90;;
33792;SDS011;20105;48.764;9.178;2022-11-12T12:51:19;5.90;;;5.30;;
33792;SDS011;20105;48.764;9.178;2022-11-12T12:53:48;7.45;;;5.28;;
33792;SDS011;20105;48.764;9.178;2022-11-12T13:01:10;6.10;;;4.70;;
33792;SDS011;20105;48.764;9.178;2022-11-12T13:16:58;7.50;;;5.03;;
33792;SDS011;20105;48.764;9.178;2022-11-12T13:19:34;12.98;;;4.60;;
33792;SDS011;20105;48.764;9.178;2022-11-12T13:25:03;5.53;;;4.63;;
33792;SDS011;20105;48.764;9.178;2022-11-12T13:28:02;6.13;;;4.40;;
33792;SDS011;20105;48.764;9.178;2022-11-12T13:32:43;5.60;;;4.53;;
33792;SDS011;20105;48.764;9.178;2022-11-12T13:37:46;5.55;;;4.53;;
33792;SDS011;20105;48.764;9.178;2022-11-12T13:50:51;5.57;;;5.03;;
33792;SDS011;20105;48.764;9.178;2022-11-12T13:53:26;6.05;;;5.45;;
33792;SDS011;20105;48.764;9.178;2022-11-12T13:55:54;4.95;;;4.55;;
33792;SDS011;20105;48.764;9.178;2022-11-12T13:58:30;4.80;;;4.20;;
33792;SDS011;20105;48.764;9.178;2022-11-12T14:00:58;6.00;;;4.55;;
33792;SDS011;20105;48.764;9.178;2022-11-12T14:03:27;6.47;;;5.05;;
33792;SDS011;20105;48.764;9.178;2022-11-12T14:05:56;6.20;;;5.30;;
33792;SDS011;20105;48.764;9.178;2022-11-12T14:08:35;7.38;;;5.03;;
33792;SDS011;20105;48.764;9.178;2022-11-12T14:22:09;4.80;;;4.40;;
33792;SDS011;20105;48.764;9.178;2022-11-12T14:24:38;5.93;;;5.03;;
33792;SDS011;20105;48.764;9.178;2022-11-12T14:27:19;5.40;;;4.90;;
33792;SDS011;20105;48.764;9.178;2022-11-12T14:32:43;6.25;;;5.20;;
33792;SDS011;20105;48.764;9.178;2022-11-12T14:35:20;5.55;;;5.05;;
33792;SDS011;20105;48.764;9.178;2022-11-12T14:38:14;5.90;;;4.80;;
33792;SDS011;20105;48.764;9.178;2022-11-12T14:41:06;8.50;;;6.65;;
33792;SDS011;20105;48.764;9.178;2022-11-12T14:46:06;6.37;;;5.40;;
33792;SDS011;20105;48.764;9.178;2022-11-12T14:51:48;9.02;;;5.68;;
33792;SDS011;20105;48.764;9.178;2022-11-12T14:54:22;7.50;;;5.70;;
33792;SDS011;20105;48.764;9.178;2022-11-12T14:56:52;5.85;;;4.57;;
33792;SDS011;20105;48.764;9.178;2022-11-12T14:59:18;5.83;;;5.23;;
33792;SDS011;20105;48.764;9.178;2022-11-12T15:04:43;6.80;;;6.20;;
33792;SDS011;20105;48.764;9.178;2022-11-12T15:09:53;7.07;;;5.47;;
33792;SDS011;20105;48.764;9.178;2022-11-12T15:12:20;7.43;;;6.05;;
33792;SDS011;20105;48.764;9.178;2022-11-12T15:15:05;6.80;;;5.93;;
33792;SDS011;20105;48.764;9.178;2022-11-12T15:17:42;7.43;;;5.40;;
33792;SDS011;20105;48.764;9.178;2022-11-12T15:20:12;5.17;;;4.70;;
33792;SDS011;20105;48.764;9.178;2022-11-12T15:22:40;6.72;;;5.00;;
33792;SDS011;20105;48.764;9.178;2022-11-12T15:27:46;9.35;;;5.47;;
33792;SDS011;20105;48.764;9.178;2022-11-12T15:30:22;6.47;;;5.05;;
33792;SDS011;20105;48.764;9.178;2022-11-12T15:35:36;6.72;;;5.10;;
33792;SDS011;20105;48.764;9.178;2022-11-12T15:38:25;6.15;;;5.13;;
33792;SDS011;20105;48.764;9.178;2022-11-12T15:40:56;6.82;;;5.10;;
33792;SDS011;20105;48.764;9.178;2022-11-12T15:43:30;7.90;;;5.80;;
33792;SDS011;20105;48.764;9.178;2022-11-12T15:45:59;13.35;;;6.75;;
33792;SDS011;20105;48.764;9.178;2022-11-12T15:48:25;7.63;;;5.80;;
33792;SDS011;20105;48.764;9.178;2022-11-12T15:50:51;9.23;;;6.07;;
33792;SDS011;20105;48.764;9.178;2022-11-12T15:53:17;9.07;;;7.45;;
33792;SDS011;20105;48.764;9.178;2022-11-12T15:55:43;7.10;;;6.10;;
33792;SDS011;20105;48.764;9.178;2022-11-12T15:58:14;8.40;;;6.38;;
33792;SDS011;20105;48.764;9.178;2022-11-12T16:00:44;6.90;;;5.95;;
33792;SDS011;20105;48.764;9.178;2022-11-12T16:03:11;9.65;;;6.05;;
33792;SDS011;20105;48.764;9.178;2022-11-12T16:05:42;8.15;;;7.35;;
33792;SDS011;20105;48.764;9.178;2022-11-12T16:08:08;7.82;;;7.07;;
33792;SDS011;20105;48.764;9.178;2022-11-12T16:10:35;6.97;;;6.30;;
33792;SDS011;20105;48.764;9.178;2022-11-12T16:13:02;7.03;;;5.45;;
33792;SDS011;20105;48.764;9.178;2022-11-12T16:15:30;6.78;;;6.13;;
33792;SDS011;20105;48.764;9.178;2022-11-12T16:17:55;9.60;;;6.20;;
33792;SDS011;20105;48.764;9.178;2022-11-12T16:22:56;7.95;;;6.35;;
33792;SDS011;20105;48.764;9.178;2022-11-12T16:25:22;6.95;;;5.82;;
33792;SDS011;20105;48.764;9.178;2022-11-12T16:27:50;7.50;;;6.22;;
33792;SDS011;20105;48.764;9.178;2022-11-12T16:30:17;7.20;;;6.27;;
33792;SDS011;20105;48.764;9.178;2022-11-12T16:32:46;6.70;;;6.05;;
33792;SDS011;20105;48.764;9.178;2022-11-12T16:35:12;7.05;;;5.50;;
33792;SDS011;20105;48.764;9.178;2022-11-12T16:37:38;9.60;;;6.73;;
33792;SDS011;20105;48.764;9.178;2022-11-12T16:40:04;7.40;;;6.53;;
33792;SDS011;20105;48.764;9.178;2022-11-12T16:42:34;7.15;;;6.25;;
33792;SDS011;20105;48.764;9.178;2022-11-12T16:45:00;9.97;;;6.07;;
33792;SDS011;20105;48.764;9.178;2022-11-12T16:47:26;8.90;;;6.20;;
33792;SDS011;20105;48.764;9.178;2022-11-12T16:49:51;8.60;;;6.57;;
33792;SDS011;20105;48.764;9.178;2022-11-12T16:52:17;9.83;;;8.43;;
33792;SDS011;20105;48.764;9.178;2022-11-12T16:54:42;8.50;;;7.57;;